sensor_id;sensor_type;location;lat;lon;timestamp;P1;durP1;ratioP1;P2;durP2;ratioP2
15198;SDS011;7700;48.654;9.070;2023-05-02T00:00:35;5.47;;;4.20;;
15198;SDS011;7700;48.654;9.070;2023-05-02T00:03:01;4.87;;;4.53;;
15198;SDS011;7700;48.654;9.070;2023-05-02T00:05:28;4.50;;;4.20;;
15198;SDS011;7700;48.654;9.070;2023-05-02T00:07:55;5.70;;;4.73;;
15198;SDS011;7700;48.654;9.070;2023-05-02T00:10:21;5.33;;;4.83;;
15198;SDS011;7700;48.654;9.070;2023-05-02T00:12:47;5.53;;;5.03;;
15198;SDS011;7700;48.654;9.070;2023-05-02T00:15:13;5.43;;;4.67;;
15198;SDS011;7700;48.654;9.070;2023-05-02T00:17:39;5.37;;;4.93;;
15198;SDS011;7700;48.654;9.070;2023-05-02T00:20:06;5.10;;;4.70;;
15198;SDS011;7700;48.654;9.070;2023-05-02T00:22:33;5.90;;;5.40;;
15198;SDS011;7700;48.654;9.070;2023-05-02T00:24:59;5.47;;;5.03;;
15198;SDS011;7700;48.654;9.070;2023-05-02T00:27:25;5.60;;;5.20;;
15198;SDS011;7700;48.654;9.070;2023-05-02T00:29:54;6.60;;;5.87;;
15198;SDS011;7700;48.654;9.070;2023-05-02T00:32:21;6.77;;;6.27;;
15198;SDS011;7700;48.654;9.070;2023-05-02T00:34:47;6.33;;;5.73;;
15198;SDS011;7700;48.654;9.070;2023-05-02T00:37:13;6.57;;;6.03;;
15198;SDS011;7700;48.654;9.070;2023-05-02T00:39:39;6.83;;;5.87;;
15198;SDS011;7700;48.654;9.070;2023-05-02T00:42:05;6.63;;;5.60;;
15198;SDS011;7700;48.654;9.070;2023-05-02T00:44:31;6.30;;;5.80;;
15198;SDS011;7700;48.654;9.070;2023-05-02T00:46:57;5.97;;;5.47;;
15198;SDS011;7700;48.654;9.070;2023-05-02T00:49:25;6.13;;;5.63;;
15198;SDS011;7700;48.654;9.070;2023-05-02T00:51:52;5.50;;;5.10;;
15198;SDS011;7700;48.654;9.070;2023-05-02T00:54:18;5.60;;;5.20;;
15198;SDS011;7700;48.654;9.070;2023-05-02T00:56:44;5.63;;;5.23;;
15198;SDS011;7700;48.654;9.070;2023-05-02T00:59:11;6.53;;;6.03;;
15198;SDS011;7700;48.654;9.070;2023-05-02T01:01:47;5.83;;;5.43;;
15198;SDS011;7700;48.654;9.070;2023-05-02T01:06:52;6.13;;;5.60;;
15198;SDS011;7700;48.654;9.070;2023-05-02T01:09:25;6.00;;;5.33;;
15198;SDS011;7700;48.654;9.070;2023-05-02T01:12:01;6.00;;;5.40;;
15198;SDS011;7700;48.654;9.070;2023-05-02T01:14:33;5.60;;;5.20;;
15198;SDS011;7700;48.654;9.070;2023-05-02T01:17:03;5.83;;;5.33;;
15198;SDS011;7700;48.654;9.070;2023-05-02T01:20:05;5.57;;;4.90;;
15198;SDS011;7700;48.654;9.070;2023-05-02T01:22:23;6.27;;;5.67;;
15198;SDS011;7700;48.654;9.070;2023-05-02T01:29:49;6.63;;;6.03;;
15198;SDS011;7700;48.654;9.070;2023-05-02T01:32:22;6.37;;;5.87;;
15198;SDS011;7700;48.654;9.070;2023-05-02T01:34:49;6.30;;;5.80;;
15198;SDS011;7700;48.654;9.070;2023-05-02T01:37:17;6.83;;;6.23;;
15198;SDS011;7700;48.654;9.070;2023-05-02T01:39:43;7.03;;;6.43;;
15198;SDS011;7700;48.654;9.070;2023-05-02T01:42:09;7.30;;;6.63;;
15198;SDS011;7700;48.654;9.070;2023-05-02T01:44:36;6.80;;;6.07;;
15198;SDS011;7700;48.654;9.070;2023-05-02T01:47:03;7.20;;;6.50;;
15198;SDS011;7700;48.654;9.070;2023-05-02T01:49:31;6.40;;;5.80;;
15198;SDS011;7700;48.654;9.070;2023-05-02T01:51:58;6.97;;;6.40;;
15198;SDS011;7700;48.654;9.070;2023-05-02T01:54:24;7.20;;;6.50;;
15198;SDS011;7700;48.654;9.070;2023-05-02T01:56:51;6.83;;;6.23;;
15198;SDS011;7700;48.654;9.070;2023-05-02T01:59:17;7.67;;;6.93;;
15198;SDS011;7700;48.654;9.070;2023-05-02T02:01:44;7.27;;;6.67;;
15198;SDS011;7700;48.654;9.070;2023-05-02T02:04:11;7.90;;;7.10;;
15198;SDS011;7700;48.654;9.070;2023-05-02T02:06:38;7.50;;;6.33;;
15198;SDS011;7700;48.654;9.070;2023-05-02T02:09:05;7.40;;;6.80;;
15198;SDS011;7700;48.654;9.070;2023-05-02T02:14:16;7.23;;;6.57;;
15198;SDS011;7700;48.654;9.070;2023-05-02T02:16:43;7.20;;;6.60;;
15198;SDS011;7700;48.654;9.070;2023-05-02T02:19:09;7.93;;;7.33;;
15198;SDS011;7700;48.654;9.070;2023-05-02T02:21:37;7.40;;;6.80;;
15198;SDS011;7700;48.654;9.070;2023-05-02T02:24:05;6.43;;;5.90;;
15198;SDS011;7700;48.654;9.070;2023-05-02T02:26:31;6.67;;;6.17;;
15198;SDS011;7700;48.654;9.070;2023-05-02T02:28:58;6.67;;;6.10;;
15198;SDS011;7700;48.654;9.070;2023-05-02T02:31:29;6.10;;;5.60;;
15198;SDS011;7700;48.654;9.070;2023-05-02T02:33:55;5.33;;;4.93;;
15198;SDS011;7700;48.654;9.070;2023-05-02T02:36:23;5.63;;;5.23;;
15198;SDS011;7700;48.654;9.070;2023-05-02T02:38:55;6.30;;;5.40;;
15198;SDS011;7700;48.654;9.070;2023-05-02T02:41:31;6.30;;;5.80;;
15198;SDS011;7700;48.654;9.070;2023-05-02T02:44:05;6.13;;;4.77;;
15198;SDS011;7700;48.654;9.070;2023-05-02T02:46:45;5.47;;;5.03;;
15198;SDS011;7700;48.654;9.070;2023-05-02T02:52:02;5.60;;;5.13;;
15198;SDS011;7700;48.654;9.070;2023-05-02T02:57:03;6.43;;;5.93;;
15198;SDS011;7700;48.654;9.070;2023-05-02T02:59:31;5.53;;;5.10;;
15198;SDS011;7700;48.654;9.070;2023-05-02T03:02:00;5.80;;;5.40;;
15198;SDS011;7700;48.654;9.070;2023-05-02T03:04:29;6.13;;;5.63;;
15198;SDS011;7700;48.654;9.070;2023-05-02T03:06:56;6.73;;;6.23;;
15198;SDS011;7700;48.654;9.070;2023-05-02T03:09:22;6.67;;;6.07;;
15198;SDS011;7700;48.654;9.070;2023-05-02T03:11:48;5.40;;;5.00;;
15198;SDS011;7700;48.654;9.070;2023-05-02T03:14:14;5.87;;;5.37;;
15198;SDS011;7700;48.654;9.070;2023-05-02T03:16:40;6.40;;;5.90;;
15198;SDS011;7700;48.654;9.070;2023-05-02T03:19:06;6.60;;;5.30;;
15198;SDS011;7700;48.654;9.070;2023-05-02T03:21:33;6.47;;;5.90;;
15198;SDS011;7700;48.654;9.070;2023-05-02T03:23:59;6.63;;;5.93;;
15198;SDS011;7700;48.654;9.070;2023-05-02T03:26:26;6.10;;;5.60;;
15198;SDS011;7700;48.654;9.070;2023-05-02T03:28:52;6.60;;;6.10;;
15198;SDS011;7700;48.654;9.070;2023-05-02T03:31:18;5.93;;;5.43;;
15198;SDS011;7700;48.654;9.070;2023-05-02T03:33:45;6.67;;;6.17;;
15198;SDS011;7700;48.654;9.070;2023-05-02T03:36:14;6.23;;;5.73;;
15198;SDS011;7700;48.654;9.070;2023-05-02T03:38:40;6.50;;;6.00;;
15198;SDS011;7700;48.654;9.070;2023-05-02T03:41:06;7.43;;;6.83;;
15198;SDS011;7700;48.654;9.070;2023-05-02T03:43:39;8.23;;;7.57;;
15198;SDS011;7700;48.654;9.070;2023-05-02T03:46:06;7.80;;;7.13;;
15198;SDS011;7700;48.654;9.070;2023-05-02T03:48:33;8.10;;;7.40;;
15198;SDS011;7700;48.654;9.070;2023-05-02T03:50:59;10.07;;;9.17;;
15198;SDS011;7700;48.654;9.070;2023-05-02T03:53:25;4.67;;;4.27;;
15198;SDS011;7700;48.654;9.070;2023-05-02T03:55:51;5.07;;;4.67;;
15198;SDS011;7700;48.654;9.070;2023-05-02T03:58:17;5.73;;;5.13;;
15198;SDS011;7700;48.654;9.070;2023-05-02T04:00:43;5.50;;;5.00;;
15198;SDS011;7700;48.654;9.070;2023-05-02T04:03:16;5.83;;;5.37;;
15198;SDS011;7700;48.654;9.070;2023-05-02T04:05:42;7.50;;;6.90;;
15198;SDS011;7700;48.654;9.070;2023-05-02T04:08:08;7.30;;;6.70;;
15198;SDS011;7700;48.654;9.070;2023-05-02T04:10:34;6.97;;;6.27;;
15198;SDS011;7700;48.654;9.070;2023-05-02T04:13:00;7.20;;;6.70;;
15198;SDS011;7700;48.654;9.070;2023-05-02T04:15:27;7.70;;;7.07;;
15198;SDS011;7700;48.654;9.070;2023-05-02T04:17:53;7.20;;;6.67;;
15198;SDS011;7700;48.654;9.070;2023-05-02T04:20:19;8.63;;;7.93;;
15198;SDS011;7700;48.654;9.070;2023-05-02T04:22:45;8.33;;;7.63;;
15198;SDS011;7700;48.654;9.070;2023-05-02T04:25:12;8.30;;;7.63;;
15198;SDS011;7700;48.654;9.070;2023-05-02T04:27:38;9.13;;;8.23;;
15198;SDS011;7700;48.654;9.070;2023-05-02T04:30:04;8.10;;;7.37;;
15198;SDS011;7700;48.654;9.070;2023-05-02T04:32:30;8.80;;;8.00;;
15198;SDS011;7700;48.654;9.070;2023-05-02T04:34:56;7.63;;;7.03;;
15198;SDS011;7700;48.654;9.070;2023-05-02T04:37:22;7.90;;;7.23;;
15198;SDS011;7700;48.654;9.070;2023-05-02T04:39:48;8.57;;;7.73;;
15198;SDS011;7700;48.654;9.070;2023-05-02T04:42:14;8.30;;;7.60;;
15198;SDS011;7700;48.654;9.070;2023-05-02T04:44:39;7.33;;;6.73;;
15198;SDS011;7700;48.654;9.070;2023-05-02T04:47:08;6.63;;;6.13;;
15198;SDS011;7700;48.654;9.070;2023-05-02T04:49:34;6.03;;;5.50;;
15198;SDS011;7700;48.654;9.070;2023-05-02T04:52:00;6.73;;;6.23;;
15198;SDS011;7700;48.654;9.070;2023-05-02T04:54:26;7.30;;;6.70;;
15198;SDS011;7700;48.654;9.070;2023-05-02T04:56:52;7.00;;;6.37;;
15198;SDS011;7700;48.654;9.070;2023-05-02T04:59:18;8.67;;;7.87;;
15198;SDS011;7700;48.654;9.070;2023-05-02T05:01:44;8.27;;;7.57;;
15198;SDS011;7700;48.654;9.070;2023-05-02T05:04:10;9.27;;;8.37;;
15198;SDS011;7700;48.654;9.070;2023-05-02T05:06:36;8.87;;;7.97;;
15198;SDS011;7700;48.654;9.070;2023-05-02T05:09:02;8.40;;;7.60;;
15198;SDS011;7700;48.654;9.070;2023-05-02T05:11:28;8.97;;;8.20;;
15198;SDS011;7700;48.654;9.070;2023-05-02T05:13:54;9.17;;;8.37;;
15198;SDS011;7700;48.654;9.070;2023-05-02T05:16:22;9.83;;;9.03;;
15198;SDS011;7700;48.654;9.070;2023-05-02T05:18:48;9.03;;;8.30;;
15198;SDS011;7700;48.654;9.070;2023-05-02T05:21:14;9.13;;;8.40;;
15198;SDS011;7700;48.654;9.070;2023-05-02T05:23:40;8.23;;;7.53;;
15198;SDS011;7700;48.654;9.070;2023-05-02T05:26:13;9.77;;;8.97;;
15198;SDS011;7700;48.654;9.070;2023-05-02T05:28:39;9.40;;;8.60;;
15198;SDS011;7700;48.654;9.070;2023-05-02T05:31:06;8.90;;;8.10;;
15198;SDS011;7700;48.654;9.070;2023-05-02T05:33:32;8.90;;;8.20;;
15198;SDS011;7700;48.654;9.070;2023-05-02T05:38:30;9.90;;;9.00;;
15198;SDS011;7700;48.654;9.070;2023-05-02T05:40:56;9.17;;;8.33;;
15198;SDS011;7700;48.654;9.070;2023-05-02T05:43:22;9.73;;;8.80;;
15198;SDS011;7700;48.654;9.070;2023-05-02T05:45:51;9.40;;;8.60;;
15198;SDS011;7700;48.654;9.070;2023-05-02T05:48:17;9.50;;;8.60;;
15198;SDS011;7700;48.654;9.070;2023-05-02T05:50:43;9.43;;;8.40;;
15198;SDS011;7700;48.654;9.070;2023-05-02T05:53:09;10.37;;;9.30;;
15198;SDS011;7700;48.654;9.070;2023-05-02T05:55:35;9.60;;;8.80;;
15198;SDS011;7700;48.654;9.070;2023-05-02T05:58:02;11.73;;;9.83;;
15198;SDS011;7700;48.654;9.070;2023-05-02T06:00:28;9.63;;;8.73;;
15198;SDS011;7700;48.654;9.070;2023-05-02T06:02:54;9.50;;;8.60;;
15198;SDS011;7700;48.654;9.070;2023-05-02T06:05:26;9.10;;;8.37;;
15198;SDS011;7700;48.654;9.070;2023-05-02T06:07:53;9.60;;;8.13;;
15198;SDS011;7700;48.654;9.070;2023-05-02T06:10:19;8.47;;;7.67;;
15198;SDS011;7700;48.654;9.070;2023-05-02T06:12:45;8.93;;;8.23;;
15198;SDS011;7700;48.654;9.070;2023-05-02T06:15:11;7.37;;;6.77;;
15198;SDS011;7700;48.654;9.070;2023-05-02T06:17:37;8.10;;;7.40;;
15198;SDS011;7700;48.654;9.070;2023-05-02T06:20:03;8.57;;;7.83;;
15198;SDS011;7700;48.654;9.070;2023-05-02T06:22:29;8.50;;;7.80;;
15198;SDS011;7700;48.654;9.070;2023-05-02T06:24:55;9.30;;;8.57;;
15198;SDS011;7700;48.654;9.070;2023-05-02T06:27:21;8.80;;;8.00;;
15198;SDS011;7700;48.654;9.070;2023-05-02T06:29:49;8.93;;;8.23;;
15198;SDS011;7700;48.654;9.070;2023-05-02T06:32:15;9.53;;;8.70;;
15198;SDS011;7700;48.654;9.070;2023-05-02T06:34:41;9.63;;;8.73;;
15198;SDS011;7700;48.654;9.070;2023-05-02T06:37:07;9.80;;;8.90;;
15198;SDS011;7700;48.654;9.070;2023-05-02T06:39:33;9.20;;;8.30;;
15198;SDS011;7700;48.654;9.070;2023-05-02T06:41:59;10.30;;;9.47;;
15198;SDS011;7700;48.654;9.070;2023-05-02T06:44:25;10.60;;;9.70;;
15198;SDS011;7700;48.654;9.070;2023-05-02T06:46:51;10.47;;;9.53;;
15198;SDS011;7700;48.654;9.070;2023-05-02T06:49:17;11.30;;;10.23;;
15198;SDS011;7700;48.654;9.070;2023-05-02T06:51:43;11.67;;;10.40;;
15198;SDS011;7700;48.654;9.070;2023-05-02T06:54:09;10.17;;;9.17;;
15198;SDS011;7700;48.654;9.070;2023-05-02T06:56:35;10.60;;;9.70;;
15198;SDS011;7700;48.654;9.070;2023-05-02T06:59:01;11.57;;;10.57;;
15198;SDS011;7700;48.654;9.070;2023-05-02T07:01:27;12.30;;;11.23;;
15198;SDS011;7700;48.654;9.070;2023-05-02T07:03:53;13.77;;;12.53;;
15198;SDS011;7700;48.654;9.070;2023-05-02T07:06:19;13.53;;;12.33;;
15198;SDS011;7700;48.654;9.070;2023-05-02T07:08:45;14.53;;;13.23;;
15198;SDS011;7700;48.654;9.070;2023-05-02T07:11:11;16.07;;;14.73;;
15198;SDS011;7700;48.654;9.070;2023-05-02T07:13:37;17.73;;;15.93;;
15198;SDS011;7700;48.654;9.070;2023-05-02T07:16:03;18.03;;;16.33;;
15198;SDS011;7700;48.654;9.070;2023-05-02T07:18:29;17.27;;;15.57;;
15198;SDS011;7700;48.654;9.070;2023-05-02T07:20:55;17.53;;;15.73;;
15198;SDS011;7700;48.654;9.070;2023-05-02T07:23:21;18.63;;;16.87;;
15198;SDS011;7700;48.654;9.070;2023-05-02T07:25:47;18.00;;;16.37;;
15198;SDS011;7700;48.654;9.070;2023-05-02T07:28:13;18.87;;;17.07;;
15198;SDS011;7700;48.654;9.070;2023-05-02T07:30:39;18.30;;;16.63;;
15198;SDS011;7700;48.654;9.070;2023-05-02T07:33:05;18.67;;;16.97;;
15198;SDS011;7700;48.654;9.070;2023-05-02T07:35:31;19.03;;;17.13;;
15198;SDS011;7700;48.654;9.070;2023-05-02T07:37:57;18.70;;;16.83;;
15198;SDS011;7700;48.654;9.070;2023-05-02T07:40:23;19.80;;;18.00;;
15198;SDS011;7700;48.654;9.070;2023-05-02T07:42:49;19.30;;;17.50;;
15198;SDS011;7700;48.654;9.070;2023-05-02T07:45:15;19.90;;;18.00;;
15198;SDS011;7700;48.654;9.070;2023-05-02T07:47:41;20.03;;;18.23;;
15198;SDS011;7700;48.654;9.070;2023-05-02T07:50:07;20.13;;;18.03;;
15198;SDS011;7700;48.654;9.070;2023-05-02T07:52:33;21.40;;;19.23;;
15198;SDS011;7700;48.654;9.070;2023-05-02T07:54:59;20.20;;;18.33;;
15198;SDS011;7700;48.654;9.070;2023-05-02T07:57:25;22.97;;;20.70;;
15198;SDS011;7700;48.654;9.070;2023-05-02T07:59:51;22.13;;;20.17;;
15198;SDS011;7700;48.654;9.070;2023-05-02T08:02:17;22.17;;;20.07;;
15198;SDS011;7700;48.654;9.070;2023-05-02T08:04:45;20.63;;;18.83;;
15198;SDS011;7700;48.654;9.070;2023-05-02T08:07:11;21.83;;;19.83;;
15198;SDS011;7700;48.654;9.070;2023-05-02T08:09:37;22.97;;;20.97;;
15198;SDS011;7700;48.654;9.070;2023-05-02T08:12:03;22.67;;;20.43;;
15198;SDS011;7700;48.654;9.070;2023-05-02T08:14:29;24.83;;;22.63;;
15198;SDS011;7700;48.654;9.070;2023-05-02T08:16:56;23.90;;;21.60;;
15198;SDS011;7700;48.654;9.070;2023-05-02T08:19:22;25.23;;;22.83;;
15198;SDS011;7700;48.654;9.070;2023-05-02T08:21:48;25.50;;;22.97;;
15198;SDS011;7700;48.654;9.070;2023-05-02T08:24:14;25.50;;;23.10;;
15198;SDS011;7700;48.654;9.070;2023-05-02T08:26:40;26.07;;;23.37;;
15198;SDS011;7700;48.654;9.070;2023-05-02T08:29:06;27.07;;;24.33;;
15198;SDS011;7700;48.654;9.070;2023-05-02T08:31:35;28.47;;;25.77;;
15198;SDS011;7700;48.654;9.070;2023-05-02T08:34:01;29.87;;;27.13;;
15198;SDS011;7700;48.654;9.070;2023-05-02T08:36:27;31.87;;;29.07;;
15198;SDS011;7700;48.654;9.070;2023-05-02T08:38:53;31.23;;;28.23;;
15198;SDS011;7700;48.654;9.070;2023-05-02T08:41:19;32.67;;;29.57;;
15198;SDS011;7700;48.654;9.070;2023-05-02T08:43:45;31.90;;;28.73;;
15198;SDS011;7700;48.654;9.070;2023-05-02T08:46:12;32.87;;;29.63;;
15198;SDS011;7700;48.654;9.070;2023-05-02T08:48:39;31.40;;;28.27;;
15198;SDS011;7700;48.654;9.070;2023-05-02T08:51:12;29.47;;;26.63;;
15198;SDS011;7700;48.654;9.070;2023-05-02T08:53:38;28.77;;;26.27;;
15198;SDS011;7700;48.654;9.070;2023-05-02T08:56:08;28.05;;;25.55;;
15198;SDS011;7700;48.654;9.070;2023-05-02T08:58:35;26.73;;;24.43;;
15198;SDS011;7700;48.654;9.070;2023-05-02T09:01:01;26.73;;;24.23;;
15198;SDS011;7700;48.654;9.070;2023-05-02T09:03:35;27.00;;;24.38;;
15198;SDS011;7700;48.654;9.070;2023-05-02T09:08:31;26.85;;;24.10;;
15198;SDS011;7700;48.654;9.070;2023-05-02T09:10:57;24.60;;;22.30;;
15198;SDS011;7700;48.654;9.070;2023-05-02T09:13:33;25.33;;;22.95;;
15198;SDS011;7700;48.654;9.070;2023-05-02T09:18:30;24.40;;;22.13;;
15198;SDS011;7700;48.654;9.070;2023-05-02T09:20:57;22.45;;;20.27;;
15198;SDS011;7700;48.654;9.070;2023-05-02T09:23:43;22.42;;;20.50;;
15198;SDS011;7700;48.654;9.070;2023-05-02T09:26:30;23.17;;;21.08;;
15198;SDS011;7700;48.654;9.070;2023-05-02T09:28:57;20.58;;;18.63;;
15198;SDS011;7700;48.654;9.070;2023-05-02T09:31:24;20.40;;;18.55;;
15198;SDS011;7700;48.654;9.070;2023-05-02T09:33:51;21.30;;;19.55;;
15198;SDS011;7700;48.654;9.070;2023-05-02T09:36:18;20.48;;;18.48;;
15198;SDS011;7700;48.654;9.070;2023-05-02T09:38:45;19.58;;;17.73;;
15198;SDS011;7700;48.654;9.070;2023-05-02T09:41:11;18.20;;;16.55;;
15198;SDS011;7700;48.654;9.070;2023-05-02T09:43:38;17.63;;;16.02;;
15198;SDS011;7700;48.654;9.070;2023-05-02T09:46:05;17.23;;;15.52;;
15198;SDS011;7700;48.654;9.070;2023-05-02T09:48:33;14.90;;;13.60;;
15198;SDS011;7700;48.654;9.070;2023-05-02T09:51:16;14.30;;;12.88;;
15198;SDS011;7700;48.654;9.070;2023-05-02T09:53:42;14.32;;;12.90;;
15198;SDS011;7700;48.654;9.070;2023-05-02T09:56:09;14.63;;;13.43;;
15198;SDS011;7700;48.654;9.070;2023-05-02T09:58:35;15.05;;;13.55;;
15198;SDS011;7700;48.654;9.070;2023-05-02T10:03:38;13.52;;;12.32;;
15198;SDS011;7700;48.654;9.070;2023-05-02T10:06:12;15.13;;;13.70;;
15198;SDS011;7700;48.654;9.070;2023-05-02T10:08:38;15.25;;;13.07;;
15198;SDS011;7700;48.654;9.070;2023-05-02T10:11:06;14.35;;;12.98;;
15198;SDS011;7700;48.654;9.070;2023-05-02T10:13:32;14.27;;;12.90;;
15198;SDS011;7700;48.654;9.070;2023-05-02T10:16:05;13.52;;;12.32;;
15198;SDS011;7700;48.654;9.070;2023-05-02T10:18:40;12.98;;;11.70;;
15198;SDS011;7700;48.654;9.070;2023-05-02T10:21:07;14.68;;;12.98;;
15198;SDS011;7700;48.654;9.070;2023-05-02T10:23:34;12.93;;;11.73;;
15198;SDS011;7700;48.654;9.070;2023-05-02T10:26:00;19.35;;;17.63;;
15198;SDS011;7700;48.654;9.070;2023-05-02T10:28:27;18.42;;;16.73;;
15198;SDS011;7700;48.654;9.070;2023-05-02T10:30:53;17.00;;;15.38;;
15198;SDS011;7700;48.654;9.070;2023-05-02T10:33:20;12.23;;;11.15;;
15198;SDS011;7700;48.654;9.070;2023-05-02T10:35:46;12.88;;;11.65;;
15198;SDS011;7700;48.654;9.070;2023-05-02T10:38:19;13.40;;;12.25;;
15198;SDS011;7700;48.654;9.070;2023-05-02T10:40:46;16.33;;;14.63;;
15198;SDS011;7700;48.654;9.070;2023-05-02T10:43:15;17.75;;;16.08;;
15198;SDS011;7700;48.654;9.070;2023-05-02T10:45:41;17.05;;;15.65;;
15198;SDS011;7700;48.654;9.070;2023-05-02T10:48:17;17.90;;;16.30;;
15198;SDS011;7700;48.654;9.070;2023-05-02T10:50:48;17.70;;;16.20;;
15198;SDS011;7700;48.654;9.070;2023-05-02T10:53:21;15.30;;;14.00;;
15198;SDS011;7700;48.654;9.070;2023-05-02T10:58:32;13.48;;;12.38;;
15198;SDS011;7700;48.654;9.070;2023-05-02T11:03:58;12.60;;;11.50;;
15198;SDS011;7700;48.654;9.070;2023-05-02T11:06:28;13.48;;;12.27;;
15198;SDS011;7700;48.654;9.070;2023-05-02T11:11:40;13.93;;;12.63;;
15198;SDS011;7700;48.654;9.070;2023-05-02T11:14:06;14.10;;;12.90;;
15198;SDS011;7700;48.654;9.070;2023-05-02T11:19:17;13.52;;;12.43;;
15198;SDS011;7700;48.654;9.070;2023-05-02T11:21:43;12.30;;;11.30;;
15198;SDS011;7700;48.654;9.070;2023-05-02T11:27:00;13.55;;;12.20;;
15198;SDS011;7700;48.654;9.070;2023-05-02T11:29:52;13.60;;;12.35;;
15198;SDS011;7700;48.654;9.070;2023-05-02T11:32:18;12.82;;;11.55;;
15198;SDS011;7700;48.654;9.070;2023-05-02T11:34:45;12.95;;;11.75;;
15198;SDS011;7700;48.654;9.070;2023-05-02T11:37:12;14.05;;;12.65;;
15198;SDS011;7700;48.654;9.070;2023-05-02T11:39:39;13.77;;;12.65;;
15198;SDS011;7700;48.654;9.070;2023-05-02T11:42:05;13.32;;;11.98;;
15198;SDS011;7700;48.654;9.070;2023-05-02T11:44:31;14.00;;;12.80;;
15198;SDS011;7700;48.654;9.070;2023-05-02T11:46:57;13.77;;;12.50;;
15198;SDS011;7700;48.654;9.070;2023-05-02T11:49:24;13.15;;;11.85;;
15198;SDS011;7700;48.654;9.070;2023-05-02T11:51:51;13.10;;;11.90;;
15198;SDS011;7700;48.654;9.070;2023-05-02T11:54:17;13.60;;;12.40;;
15198;SDS011;7700;48.654;9.070;2023-05-02T11:56:44;12.40;;;11.38;;
15198;SDS011;7700;48.654;9.070;2023-05-02T11:59:10;11.45;;;10.20;;
15198;SDS011;7700;48.654;9.070;2023-05-02T12:01:37;10.77;;;9.88;;
15198;SDS011;7700;48.654;9.070;2023-05-02T12:04:11;11.50;;;10.50;;
15198;SDS011;7700;48.654;9.070;2023-05-02T12:06:37;10.20;;;9.40;;
15198;SDS011;7700;48.654;9.070;2023-05-02T12:09:07;11.13;;;10.23;;
15198;SDS011;7700;48.654;9.070;2023-05-02T12:11:41;11.88;;;10.88;;
15198;SDS011;7700;48.654;9.070;2023-05-02T12:14:07;11.63;;;10.63;;
15198;SDS011;7700;48.654;9.070;2023-05-02T12:16:33;12.38;;;11.30;;
15198;SDS011;7700;48.654;9.070;2023-05-02T12:18:59;12.35;;;11.20;;
15198;SDS011;7700;48.654;9.070;2023-05-02T12:21:29;12.27;;;11.07;;
15198;SDS011;7700;48.654;9.070;2023-05-02T12:23:56;12.20;;;10.95;;
15198;SDS011;7700;48.654;9.070;2023-05-02T12:26:23;14.10;;;12.90;;
15198;SDS011;7700;48.654;9.070;2023-05-02T12:28:53;13.82;;;12.48;;
15198;SDS011;7700;48.654;9.070;2023-05-02T12:31:19;13.13;;;11.98;;
15198;SDS011;7700;48.654;9.070;2023-05-02T12:33:46;15.43;;;14.02;;
15198;SDS011;7700;48.654;9.070;2023-05-02T12:36:16;15.57;;;14.18;;
15198;SDS011;7700;48.654;9.070;2023-05-02T12:39:04;16.23;;;14.70;;
15198;SDS011;7700;48.654;9.070;2023-05-02T12:41:33;16.27;;;14.68;;
15198;SDS011;7700;48.654;9.070;2023-05-02T12:44:00;14.63;;;13.23;;
15198;SDS011;7700;48.654;9.070;2023-05-02T12:46:26;13.13;;;11.82;;
15198;SDS011;7700;48.654;9.070;2023-05-02T12:49:05;13.70;;;12.35;;
15198;SDS011;7700;48.654;9.070;2023-05-02T12:51:36;14.52;;;13.32;;
15198;SDS011;7700;48.654;9.070;2023-05-02T12:54:03;15.02;;;13.75;;
15198;SDS011;7700;48.654;9.070;2023-05-02T12:56:29;16.13;;;14.80;;
15198;SDS011;7700;48.654;9.070;2023-05-02T12:58:58;15.25;;;13.88;;
15198;SDS011;7700;48.654;9.070;2023-05-02T13:01:29;16.40;;;14.95;;
15198;SDS011;7700;48.654;9.070;2023-05-02T13:03:55;17.77;;;16.27;;
15198;SDS011;7700;48.654;9.070;2023-05-02T13:06:21;16.70;;;15.20;;
15198;SDS011;7700;48.654;9.070;2023-05-02T13:08:47;18.17;;;16.58;;
15198;SDS011;7700;48.654;9.070;2023-05-02T13:11:13;16.92;;;15.43;;
15198;SDS011;7700;48.654;9.070;2023-05-02T13:13:39;19.23;;;17.60;;
15198;SDS011;7700;48.654;9.070;2023-05-02T13:16:06;18.40;;;16.60;;
15198;SDS011;7700;48.654;9.070;2023-05-02T13:18:32;17.85;;;16.15;;
15198;SDS011;7700;48.654;9.070;2023-05-02T13:20:58;19.58;;;17.85;;
15198;SDS011;7700;48.654;9.070;2023-05-02T13:23:24;17.10;;;15.52;;
15198;SDS011;7700;48.654;9.070;2023-05-02T13:25:50;16.80;;;15.40;;
15198;SDS011;7700;48.654;9.070;2023-05-02T13:28:16;14.90;;;13.63;;
15198;SDS011;7700;48.654;9.070;2023-05-02T13:30:42;15.55;;;14.15;;
15198;SDS011;7700;48.654;9.070;2023-05-02T13:33:08;16.88;;;15.38;;
15198;SDS011;7700;48.654;9.070;2023-05-02T13:35:34;15.25;;;13.88;;
15198;SDS011;7700;48.654;9.070;2023-05-02T13:38:01;15.90;;;14.50;;
15198;SDS011;7700;48.654;9.070;2023-05-02T13:40:27;16.08;;;14.50;;
15198;SDS011;7700;48.654;9.070;2023-05-02T13:42:53;14.40;;;13.10;;
15198;SDS011;7700;48.654;9.070;2023-05-02T13:45:19;14.82;;;13.52;;
15198;SDS011;7700;48.654;9.070;2023-05-02T13:47:45;13.63;;;12.43;;
15198;SDS011;7700;48.654;9.070;2023-05-02T13:50:11;12.77;;;11.68;;
15198;SDS011;7700;48.654;9.070;2023-05-02T13:52:37;22.42;;;15.68;;
15198;SDS011;7700;48.654;9.070;2023-05-02T13:55:03;14.10;;;12.80;;
15198;SDS011;7700;48.654;9.070;2023-05-02T13:57:29;12.95;;;11.85;;
15198;SDS011;7700;48.654;9.070;2023-05-02T13:59:56;13.70;;;12.40;;
15198;SDS011;7700;48.654;9.070;2023-05-02T14:02:22;13.82;;;12.60;;
15198;SDS011;7700;48.654;9.070;2023-05-02T14:04:48;15.23;;;13.82;;
15198;SDS011;7700;48.654;9.070;2023-05-02T14:07:14;15.02;;;13.73;;
15198;SDS011;7700;48.654;9.070;2023-05-02T14:09:40;15.55;;;14.13;;
15198;SDS011;7700;48.654;9.070;2023-05-02T14:12:05;15.25;;;13.85;;
15198;SDS011;7700;48.654;9.070;2023-05-02T14:14:32;15.57;;;14.00;;
15198;SDS011;7700;48.654;9.070;2023-05-02T14:17:00;15.50;;;13.32;;
15198;SDS011;7700;48.654;9.070;2023-05-02T14:19:26;16.45;;;14.90;;
15198;SDS011;7700;48.654;9.070;2023-05-02T14:21:52;15.07;;;13.68;;
15198;SDS011;7700;48.654;9.070;2023-05-02T14:24:18;16.98;;;15.45;;
15198;SDS011;7700;48.654;9.070;2023-05-02T14:26:44;15.13;;;13.77;;
15198;SDS011;7700;48.654;9.070;2023-05-02T14:29:11;15.32;;;13.85;;
15198;SDS011;7700;48.654;9.070;2023-05-02T14:31:37;14.75;;;13.35;;
15198;SDS011;7700;48.654;9.070;2023-05-02T14:34:02;13.77;;;12.48;;
15198;SDS011;7700;48.654;9.070;2023-05-02T14:36:28;13.35;;;12.07;;
15198;SDS011;7700;48.654;9.070;2023-05-02T14:38:55;12.43;;;11.18;;
15198;SDS011;7700;48.654;9.070;2023-05-02T14:41:22;12.00;;;10.90;;
15198;SDS011;7700;48.654;9.070;2023-05-02T14:43:50;10.93;;;9.93;;
15198;SDS011;7700;48.654;9.070;2023-05-02T14:46:16;9.85;;;8.90;;
15198;SDS011;7700;48.654;9.070;2023-05-02T14:48:42;9.88;;;8.98;;
15198;SDS011;7700;48.654;9.070;2023-05-02T14:51:08;12.68;;;11.48;;
15198;SDS011;7700;48.654;9.070;2023-05-02T14:53:34;13.45;;;12.05;;
15198;SDS011;7700;48.654;9.070;2023-05-02T14:56:00;13.15;;;11.95;;
15198;SDS011;7700;48.654;9.070;2023-05-02T14:58:26;10.95;;;9.85;;
15198;SDS011;7700;48.654;9.070;2023-05-02T15:00:52;11.15;;;10.05;;
15198;SDS011;7700;48.654;9.070;2023-05-02T15:03:18;10.50;;;9.48;;
15198;SDS011;7700;48.654;9.070;2023-05-02T15:05:44;11.20;;;9.38;;
15198;SDS011;7700;48.654;9.070;2023-05-02T15:08:10;10.23;;;9.23;;
15198;SDS011;7700;48.654;9.070;2023-05-02T15:10:39;9.63;;;8.82;;
15198;SDS011;7700;48.654;9.070;2023-05-02T15:13:05;11.02;;;9.20;;
15198;SDS011;7700;48.654;9.070;2023-05-02T15:15:32;9.40;;;8.50;;
15198;SDS011;7700;48.654;9.070;2023-05-02T15:17:58;8.52;;;7.80;;
15198;SDS011;7700;48.654;9.070;2023-05-02T15:20:24;7.82;;;6.90;;
15198;SDS011;7700;48.654;9.070;2023-05-02T15:22:50;7.50;;;6.85;;
15198;SDS011;7700;48.654;9.070;2023-05-02T15:25:16;9.80;;;8.75;;
15198;SDS011;7700;48.654;9.070;2023-05-02T15:27:43;10.05;;;9.05;;